createdAt,value
2018-08-17T07:37:56.210Z,100.00
2018-08-17T07:40:24.340Z,45.57
2018-08-17T07:42:52.750Z,45.33
2018-08-17T07:45:20.925Z,44.62
2018-08-17T07:47:49.193Z,44.16
2018-08-17T07:50:18.373Z,44.74
2018-08-17T07:52:47.042Z,44.10
2018-08-17T07:55:15.555Z,44.15
2018-08-17T07:57:44.518Z,44.69
2018-08-17T08:00:13.068Z,43.92
2018-08-17T08:02:41.358Z,43.52
2018-08-17T08:05:10.753Z,43.17
2018-08-17T08:07:39.155Z,43.27
2018-08-17T08:10:08.446Z,44.12
2018-08-17T08:12:36.769Z,43.42
2018-08-17T08:15:05.324Z,42.84
2018-08-17T08:17:33.635Z,42.60
2018-08-17T08:20:13.026Z,41.78
2018-08-17T08:22:41.269Z,41.62
2018-08-17T08:25:09.576Z,41.77
2018-08-17T08:27:37.757Z,42.19
2018-08-17T08:30:07.030Z,42.10
2018-08-17T08:32:35.287Z,42.34
2018-08-17T08:35:03.368Z,41.79
2018-08-17T08:37:31.608Z,41.08
2018-08-17T08:39:59.892Z,41.50
2018-08-17T08:42:28.036Z,42.25
2018-08-17T08:44:56.376Z,42.50
2018-08-17T08:47:24.549Z,41.54
2018-08-17T08:49:52.791Z,41.79
2018-08-17T08:52:21.039Z,41.22
2018-08-17T08:54:49.202Z,41.46
2018-08-17T08:57:17.666Z,41.19
2018-08-17T08:59:45.908Z,41.41
2018-08-17T09:02:14.154Z,40.22
2018-08-17T09:04:42.320Z,40.54
2018-08-17T09:07:10.520Z,40.22
2018-08-17T09:09:38.819Z,40.06
2018-08-17T09:12:07.349Z,40.08
2018-08-17T09:14:35.588Z,40.06
2018-08-17T09:17:03.796Z,39.63
2018-08-17T09:19:31.944Z,38.74
2018-08-17T09:22:00.221Z,38.02
2018-08-17T09:24:28.395Z,38.12
2018-08-17T09:26:56.676Z,38.42
2018-08-17T09:29:26.386Z,38.53
2018-08-17T09:31:54.603Z,38.47
2018-08-17T09:34:22.980Z,37.41
2018-08-17T09:36:51.249Z,37.28
2018-08-17T09:39:19.585Z,36.32
2018-08-17T09:41:48.054Z,36.85
2018-08-17T09:44:16.254Z,36.82
2018-08-17T09:46:44.550Z,35.95
2018-08-17T09:49:13.248Z,36.17
2018-08-17T09:51:41.420Z,36.48
2018-08-17T09:54:09.601Z,37.07
2018-08-17T09:56:38.175Z,36.32
2018-08-17T09:59:06.865Z,36.04
2018-08-17T10:01:41.186Z,35.31
2018-08-17T10:04:14.746Z,35.32
2018-08-17T10:06:48.452Z,35.84
2018-08-17T10:09:22.122Z,35.42
2018-08-17T10:11:51.706Z,34.82
2018-08-17T10:14:20.474Z,34.69
2018-08-17T10:16:49.326Z,34.56
2018-08-17T10:19:17.488Z,34.92
2018-08-17T10:21:50.242Z,34.46
2018-08-17T10:24:18.592Z,34.03
2018-08-17T10:26:48.584Z,34.15
2018-08-17T10:29:17.094Z,34.69
2018-08-17T10:31:52.108Z,34.86
2018-08-17T10:34:20.522Z,33.69
2018-08-17T10:36:49.407Z,34.08
2018-08-17T10:39:17.619Z,33.90
2018-08-17T10:41:45.835Z,33.91
2018-08-17T10:44:14.069Z,33.35
2018-08-17T10:46:42.762Z,33.57
2018-08-17T10:49:11.411Z,34.05
2018-08-17T10:51:39.747Z,33.10
2018-08-17T10:54:08.012Z,33.07
2018-08-17T10:56:36.306Z,32.35
2018-08-17T10:59:04.526Z,33.71
2018-08-17T11:01:32.731Z,33.21
2018-08-17T11:04:00.928Z,32.88
2018-08-17T11:06:29.209Z,32.96
2018-08-17T11:09:03.949Z,33.21
2018-08-17T11:11:32.257Z,32.72
2018-08-17T11:14:00.510Z,31.86
2018-08-17T11:16:28.747Z,32.05
2018-08-17T11:18:56.977Z,31.31
2018-08-17T11:21:25.405Z,30.86
2018-08-17T11:23:53.596Z,31.02
2018-08-17T11:26:22.390Z,31.32
2018-08-17T11:28:50.577Z,30.58
2018-08-17T11:31:18.736Z,31.40
2018-08-17T11:33:46.924Z,31.76
2018-08-17T11:36:15.141Z,31.12
2018-08-17T11:38:43.436Z,31.61
2018-08-17T11:41:13.092Z,31.85
2018-08-17T11:43:41.483Z,31.77
2018-08-17T11:46:09.637Z,31.42
2018-08-17T11:48:38.627Z,32.16
2018-08-17T11:51:07.423Z,31.70
2018-08-17T11:53:36.035Z,30.93
2018-08-17T11:56:04.350Z,30.65
2018-08-17T11:58:32.518Z,30.56
2018-08-17T12:01:00.768Z,31.23
2018-08-17T12:03:29.504Z,30.39
2018-08-17T12:05:57.844Z,29.63
2018-08-17T12:08:26.071Z,29.63
2018-08-17T12:10:59.546Z,30.12
2018-08-17T12:13:27.777Z,29.19
2018-08-17T12:15:56.430Z,29.49
2018-08-17T12:18:24.857Z,30.55
2018-08-17T12:20:53.561Z,30.54
2018-08-17T12:23:21.809Z,30.85
2018-08-17T12:25:57.592Z,29.36
2018-08-17T12:28:27.408Z,29.69
2018-08-17T12:30:56.174Z,29.49
2018-08-17T12:33:25.215Z,29.53
2018-08-17T12:35:53.600Z,28.66
2018-08-17T12:38:21.819Z,29.18
2018-08-17T12:40:53.009Z,28.07
2018-08-17T12:43:24.921Z,28.70
2018-08-17T12:45:53.157Z,29.32
2018-08-17T12:48:21.509Z,28.71
2018-08-17T12:50:49.685Z,29.54
2018-08-17T12:53:17.905Z,28.86
2018-08-17T12:55:46.204Z,29.18
2018-08-17T12:58:15.738Z,29.57
2018-08-17T13:00:44.323Z,29.23
2018-08-17T13:03:12.531Z,29.11
2018-08-17T13:05:40.913Z,29.68
2018-08-17T13:08:09.398Z,29.11
2018-08-17T13:10:38.020Z,28.61
2018-08-17T13:13:08.448Z,29.39
2018-08-17T13:15:37.203Z,28.83
2018-08-17T13:18:14.657Z,28.75
2018-08-17T13:20:42.871Z,28.56
2018-08-17T13:23:11.466Z,100.00
2018-08-17T13:25:39.993Z,100.00
2018-08-17T13:28:08.197Z,100.00
2018-08-17T13:30:36.374Z,100.00
2018-08-17T13:33:04.565Z,100.00
2018-08-17T13:35:32.829Z,100.00
2018-08-17T13:38:01.005Z,100.00
2018-08-17T13:40:29.728Z,100.00
2018-08-17T13:42:57.940Z,100.00
2018-08-17T13:57:43.192Z,100.00
2018-08-17T14:00:12.183Z,100.00
2018-08-17T14:02:40.595Z,100.00
2018-08-17T14:05:10.173Z,100.00
2018-08-17T14:07:38.390Z,100.00
2018-08-17T14:10:09.340Z,100.00
2018-08-17T14:39:38.432Z,100.00
2018-08-17T14:42:06.764Z,100.00
